createdAt,value
2022-08-03T00:01:08.290Z,83.08
2022-08-03T00:03:41.324Z,82.92
2022-08-03T00:06:14.184Z,83.16
2022-08-03T00:08:48.552Z,83.84
2022-08-03T00:11:22.970Z,83.91
2022-08-03T00:13:55.935Z,83.82
2022-08-03T00:16:28.818Z,84.77
2022-08-03T00:19:02.405Z,85.23
2022-08-03T00:21:35.338Z,85.55
2022-08-03T00:24:08.500Z,85.56
2022-08-03T00:26:42.808Z,85.58
2022-08-03T00:29:15.805Z,85.87
2022-08-03T00:31:59.126Z,86.00
2022-08-03T00:34:57.185Z,86.68
2022-08-03T00:37:40.777Z,87.33
2022-08-03T00:40:16.931Z,87.09
2022-08-03T00:42:55.663Z,87.57
2022-08-03T00:45:29.505Z,87.26
2022-08-03T00:48:03.289Z,87.75
2022-08-03T00:50:39.484Z,87.83
2022-08-03T00:53:13.558Z,88.29
2022-08-03T00:55:46.877Z,88.50
2022-08-03T00:58:21.182Z,88.63
2022-08-03T01:00:54.612Z,88.85
2022-08-03T01:03:28.039Z,89.86
2022-08-03T01:06:09.512Z,90.35
2022-08-03T01:08:47.881Z,91.01
2022-08-03T01:11:28.975Z,91.15
2022-08-03T01:14:18.588Z,91.27
2022-08-03T01:16:58.682Z,91.76
2022-08-03T01:19:43.652Z,91.64
2022-08-03T01:22:38.175Z,91.99
2022-08-03T01:25:22.094Z,92.09
2022-08-03T01:28:04.059Z,92.51
2022-08-03T01:30:40.343Z,92.41
2022-08-03T01:33:18.789Z,92.74
2022-08-03T01:35:59.490Z,92.61
2022-08-03T01:38:35.091Z,92.76
2022-08-03T01:41:11.943Z,93.23
2022-08-03T01:44:28.544Z,93.66
2022-08-03T01:46:48.887Z,93.19
2022-08-03T01:49:22.073Z,93.36
2022-08-03T01:52:04.158Z,93.57
2022-08-03T01:54:43.387Z,93.20
2022-08-03T01:57:17.690Z,92.85
2022-08-03T01:59:52.027Z,92.59
2022-08-03T02:02:32.794Z,92.90
2022-08-03T02:05:11.379Z,93.40
2022-08-03T02:07:47.333Z,92.74
2022-08-03T02:10:35.238Z,93.13
2022-08-03T02:13:10.662Z,93.58
2022-08-03T02:15:44.947Z,93.33
2022-08-03T02:18:21.392Z,93.64
2022-08-03T02:20:55.773Z,94.00
2022-08-03T02:23:28.702Z,94.47
2022-08-03T02:26:04.244Z,94.06
2022-08-03T02:28:41.036Z,94.22
2022-08-03T02:31:17.675Z,94.42
2022-08-03T02:33:55.180Z,94.75
2022-08-03T02:36:31.844Z,94.80
2022-08-03T02:39:05.572Z,95.30
2022-08-03T02:41:46.471Z,95.21
2022-08-03T02:44:25.797Z,95.64
2022-08-03T02:47:03.159Z,95.82
2022-08-03T02:49:50.633Z,95.83
2022-08-03T02:52:29.486Z,96.03
2022-08-03T02:55:05.545Z,96.27
2022-08-03T02:57:40.260Z,96.91
2022-08-03T03:00:27.314Z,96.61
2022-08-03T03:03:03.948Z,95.75
2022-08-03T03:05:55.712Z,94.91
2022-08-03T03:08:31.134Z,94.48
2022-08-03T03:11:04.552Z,94.32
2022-08-03T03:13:38.638Z,93.92
2022-08-03T03:16:14.154Z,94.45
2022-08-03T03:18:49.779Z,94.93
2022-08-03T03:21:24.841Z,95.13
2022-08-03T03:23:59.868Z,94.54
2022-08-03T03:26:34.222Z,94.61
2022-08-03T03:29:08.273Z,94.76
2022-08-03T03:31:44.098Z,94.76
2022-08-03T03:34:18.134Z,94.87
2022-08-03T03:36:52.449Z,95.50
2022-08-03T03:39:25.812Z,95.82
2022-08-03T03:41:59.124Z,96.12
2022-08-03T03:44:32.619Z,96.03
2022-08-03T03:47:05.673Z,96.25
2022-08-03T03:49:38.861Z,96.04
2022-08-03T03:52:13.301Z,95.90
2022-08-03T03:54:46.793Z,96.45
2022-08-03T03:57:19.798Z,97.17
2022-08-03T03:59:53.072Z,97.56
2022-08-03T04:02:26.251Z,97.37
2022-08-03T04:05:28.150Z,97.74
2022-08-03T04:08:24.997Z,99.00
2022-08-03T04:11:15.766Z,98.95
2022-08-03T04:13:52.603Z,98.69
2022-08-03T04:16:29.960Z,98.74
2022-08-03T04:19:07.111Z,99.04
2022-08-03T04:21:44.418Z,99.01
2022-08-03T04:24:21.986Z,98.83
2022-08-03T04:27:01.860Z,98.77
2022-08-03T04:29:39.994Z,98.90
2022-08-03T04:32:25.210Z,98.84
2022-08-03T04:34:58.649Z,98.58
2022-08-03T04:37:39.280Z,98.55
2022-08-03T04:40:16.786Z,98.38
2022-08-03T04:42:56.167Z,98.23
2022-08-03T04:45:31.394Z,98.25
2022-08-03T04:48:05.862Z,97.98
2022-08-03T04:50:38.950Z,96.90
2022-08-03T04:53:12.504Z,95.83
2022-08-03T04:55:47.322Z,95.59
2022-08-03T04:58:20.558Z,94.70
2022-08-03T05:00:53.499Z,94.53
2022-08-03T05:03:26.588Z,93.85
2022-08-03T05:06:01.730Z,93.20
2022-08-03T05:08:35.137Z,92.95
2022-08-03T05:11:20.492Z,92.39
2022-08-03T05:13:53.481Z,92.28
2022-08-03T05:16:26.800Z,91.96
2022-08-03T05:19:05.048Z,91.13
2022-08-03T05:21:51.146Z,90.60
2022-08-03T05:24:26.455Z,90.27
2022-08-03T05:27:00.762Z,90.01
2022-08-03T05:29:34.110Z,89.87
2022-08-03T05:32:08.432Z,89.46
2022-08-03T05:34:41.716Z,89.18
2022-08-03T05:37:14.658Z,88.50
2022-08-03T05:39:47.777Z,87.83
2022-08-03T05:42:22.201Z,86.85
2022-08-03T05:44:55.261Z,85.26
2022-08-03T05:47:28.278Z,83.54
2022-08-03T05:50:01.391Z,81.02
2022-08-03T05:52:34.290Z,79.86
2022-08-03T05:55:08.246Z,79.33
2022-08-03T05:57:43.627Z,78.86
2022-08-03T06:00:19.591Z,77.41
2022-08-03T06:02:54.894Z,77.29
2022-08-03T06:05:28.319Z,77.13
2022-08-03T06:08:01.183Z,76.39
2022-08-03T06:10:37.964Z,76.69
2022-08-03T06:13:12.805Z,76.53
2022-08-03T06:15:46.080Z,75.11
2022-08-03T06:18:19.021Z,73.16
2022-08-03T06:20:52.445Z,72.99
2022-08-03T06:23:53.102Z,73.03
2022-08-03T06:26:18.575Z,73.53
2022-08-03T06:28:54.416Z,74.05
2022-08-03T06:31:32.975Z,73.61
2022-08-03T06:34:32.658Z,73.14
2022-08-03T06:37:02.281Z,72.57
2022-08-03T06:39:35.523Z,71.27
2022-08-03T06:42:09.860Z,70.20
2022-08-03T06:44:44.315Z,70.24
2022-08-03T06:47:17.259Z,70.77
2022-08-03T06:50:12.398Z,71.45
2022-08-03T06:52:43.112Z,71.28
2022-08-03T06:55:15.942Z,71.32
2022-08-03T06:57:48.978Z,70.17
2022-08-03T07:00:23.720Z,69.32
2022-08-03T07:02:58.391Z,69.07
2022-08-03T07:05:33.455Z,68.74
2022-08-03T07:08:07.013Z,67.81
2022-08-03T07:10:40.148Z,66.57
2022-08-03T07:13:13.510Z,66.44
2022-08-03T07:15:55.666Z,66.94
2022-08-03T07:18:29.913Z,65.76
2022-08-03T07:21:03.220Z,65.68
2022-08-03T07:23:36.259Z,64.26
2022-08-03T07:26:09.317Z,63.99
2022-08-03T07:28:42.302Z,63.89
2022-08-03T07:31:16.532Z,63.44
2022-08-03T07:33:54.790Z,63.57
2022-08-03T07:36:27.692Z,63.34
2022-08-03T07:39:00.962Z,62.68
2022-08-03T07:41:51.503Z,62.92
2022-08-03T07:44:25.605Z,62.77
2022-08-03T07:46:59.992Z,61.73
2022-08-03T07:49:40.553Z,61.04
2022-08-03T07:52:31.225Z,59.99
2022-08-03T07:55:06.316Z,59.97
2022-08-03T07:57:43.195Z,60.16
2022-08-03T08:00:19.322Z,58.24
2022-08-03T08:02:56.686Z,58.83
2022-08-03T08:05:30.465Z,57.75
2022-08-03T08:08:04.432Z,57.51
2022-08-03T08:10:37.608Z,56.59
2022-08-03T08:13:11.198Z,54.71
2022-08-03T08:15:44.288Z,53.24
2022-08-03T08:18:19.796Z,52.84
2022-08-03T08:20:52.893Z,53.31
2022-08-03T08:23:41.781Z,51.92
2022-08-03T08:26:16.628Z,51.10
2022-08-03T08:28:49.488Z,46.54
2022-08-03T08:31:22.525Z,41.87
2022-08-03T08:34:04.693Z,38.83
2022-08-03T08:36:38.035Z,37.00
2022-08-03T08:39:12.163Z,34.54
2022-08-03T08:41:53.448Z,34.65
2022-08-03T08:44:26.384Z,34.64
2022-08-03T08:47:04.125Z,36.93
2022-08-03T08:49:49.440Z,38.65
2022-08-03T08:52:32.779Z,41.77
2022-08-03T08:55:08.375Z,43.00
2022-08-03T08:57:48.130Z,41.76
2022-08-03T09:00:21.551Z,40.87
2022-08-03T09:02:54.900Z,39.96
2022-08-03T09:05:55.020Z,41.59
2022-08-03T09:08:25.715Z,45.77
2022-08-03T09:10:59.279Z,47.38
2022-08-03T09:13:33.793Z,47.68
2022-08-03T09:16:11.973Z,48.93
2022-08-03T09:18:47.036Z,49.44
2022-08-03T09:21:32.514Z,49.52
2022-08-03T09:24:16.480Z,49.06
2022-08-03T09:26:54.021Z,49.70
2022-08-03T09:29:27.275Z,49.62
2022-08-03T09:32:03.066Z,49.86
2022-08-03T09:34:37.395Z,50.10
2022-08-03T09:37:16.445Z,49.81
2022-08-03T09:39:49.821Z,49.96
2022-08-03T09:42:24.292Z,50.25
2022-08-03T09:44:58.046Z,50.05
2022-08-03T09:47:33.387Z,49.89
2022-08-03T09:50:09.056Z,48.99
2022-08-03T09:52:52.283Z,48.63
2022-08-03T09:56:33.067Z,48.21
2022-08-03T09:58:19.214Z,49.20
2022-08-03T10:01:03.836Z,48.90
2022-08-03T10:04:02.927Z,48.38
2022-08-03T10:06:32.819Z,48.90
2022-08-03T10:09:10.081Z,48.15
2022-08-03T10:11:44.246Z,47.91
2022-08-03T10:14:19.910Z,47.71
2022-08-03T10:16:53.313Z,47.40
2022-08-03T10:19:26.647Z,47.41
2022-08-03T10:22:05.131Z,47.53
2022-08-03T10:24:43.480Z,47.48
2022-08-03T10:27:18.174Z,48.21
2022-08-03T10:29:54.702Z,47.64
2022-08-03T10:32:31.721Z,47.10
2022-08-03T10:35:19.155Z,47.63
2022-08-03T10:37:59.816Z,47.42
2022-08-03T10:40:52.675Z,47.49
2022-08-03T10:43:35.868Z,47.21
2022-08-03T10:46:09.766Z,47.56
2022-08-03T10:48:43.330Z,47.77
2022-08-03T10:51:17.019Z,47.31
2022-08-03T10:53:54.260Z,46.35
2022-08-03T10:57:03.388Z,46.64
2022-08-03T10:59:58.111Z,46.11
2022-08-03T11:03:08.708Z,46.50
2022-08-03T11:05:43.361Z,46.72
2022-08-03T11:08:38.142Z,46.19
2022-08-03T11:11:28.455Z,46.78
2022-08-03T11:14:05.706Z,46.41
2022-08-03T11:16:40.977Z,46.16
2022-08-03T11:19:17.625Z,46.66
2022-08-03T11:21:55.181Z,46.82
2022-08-03T11:25:02.099Z,46.50
2022-08-03T11:27:35.306Z,45.85
2022-08-03T11:30:11.656Z,46.36
2022-08-03T11:33:01.886Z,46.58
2022-08-03T11:35:36.521Z,46.48
2022-08-03T11:38:12.146Z,46.85
2022-08-03T11:40:47.359Z,45.80
2022-08-03T11:43:46.332Z,45.34
2022-08-03T11:46:29.721Z,44.82
2022-08-03T11:49:10.293Z,45.17
2022-08-03T11:51:44.188Z,46.15
2022-08-03T11:54:27.212Z,45.14
2022-08-03T11:57:00.078Z,45.10
2022-08-03T11:59:34.106Z,44.43
2022-08-03T12:02:09.559Z,43.70
2022-08-03T12:04:51.310Z,43.04
2022-08-03T12:08:02.457Z,43.01
2022-08-03T12:10:17.286Z,42.55
2022-08-03T12:12:56.995Z,42.94
2022-08-03T12:15:31.827Z,42.53
2022-08-03T12:18:15.766Z,43.03
2022-08-03T12:20:50.130Z,43.00
2022-08-03T12:23:23.729Z,44.16
2022-08-03T12:26:03.088Z,43.16
2022-08-03T12:28:38.422Z,44.67
2022-08-03T12:31:11.799Z,44.11
2022-08-03T12:34:01.882Z,43.25
2022-08-03T12:36:37.444Z,43.18
2022-08-03T12:39:11.803Z,44.09
2022-08-03T12:41:45.793Z,43.71
2022-08-03T12:44:18.924Z,43.98
2022-08-03T12:46:59.304Z,44.52
2022-08-03T12:49:46.105Z,44.37
2022-08-03T12:52:20.722Z,44.54
2022-08-03T12:54:57.699Z,44.63
2022-08-03T12:57:41.720Z,44.46
2022-08-03T13:00:21.447Z,43.36
2022-08-03T13:03:39.796Z,43.34
2022-08-03T13:05:58.472Z,43.86
2022-08-03T13:08:31.503Z,44.17
2022-08-03T13:11:19.558Z,44.07
2022-08-03T13:13:53.890Z,44.30
2022-08-03T13:16:27.336Z,43.49
2022-08-03T13:19:00.351Z,43.47
2022-08-03T13:21:34.717Z,42.69
2022-08-03T13:24:26.312Z,42.69
2022-08-03T13:26:59.573Z,43.11
2022-08-03T13:29:36.831Z,43.15
2022-08-03T13:32:10.495Z,43.15
2022-08-03T13:34:43.586Z,42.99
2022-08-03T13:37:18.113Z,43.60
2022-08-03T13:39:59.369Z,44.04
2022-08-03T13:42:35.251Z,43.66
2022-08-03T13:45:09.787Z,43.20
2022-08-03T13:47:42.814Z,43.32
2022-08-03T13:50:16.185Z,44.03
2022-08-03T13:52:50.448Z,44.13
2022-08-03T13:55:23.510Z,43.49
2022-08-03T13:58:06.332Z,43.48
2022-08-03T14:00:40.713Z,42.75
2022-08-03T14:03:14.701Z,43.48
2022-08-03T14:05:48.197Z,42.49
2022-08-03T14:08:22.539Z,42.77
2022-08-03T14:10:55.660Z,42.50
2022-08-03T14:13:29.739Z,42.30
2022-08-03T14:16:03.321Z,42.75
2022-08-03T14:18:36.896Z,43.83
2022-08-03T14:21:14.751Z,44.00
2022-08-03T14:23:48.921Z,44.33
2022-08-03T14:26:21.983Z,44.64
2022-08-03T14:28:55.729Z,44.81
2022-08-03T14:32:11.161Z,45.05
2022-08-03T14:34:21.560Z,44.53
2022-08-03T14:36:54.563Z,44.79
2022-08-03T14:39:58.277Z,44.58
2022-08-03T14:42:21.894Z,44.73
2022-08-03T14:44:58.833Z,44.40
2022-08-03T14:47:36.430Z,44.37
2022-08-03T14:50:41.632Z,44.91
2022-08-03T14:53:17.821Z,44.41
2022-08-03T14:55:53.317Z,45.06
2022-08-03T14:58:26.731Z,45.34
2022-08-03T15:00:59.746Z,43.75
2022-08-03T15:03:32.761Z,44.52
2022-08-03T15:06:05.617Z,44.50
2022-08-03T15:08:38.691Z,44.53
2022-08-03T15:11:12.909Z,44.76
2022-08-03T15:13:46.043Z,45.63
2022-08-03T15:16:18.890Z,45.88
2022-08-03T15:18:51.847Z,45.74
2022-08-03T15:21:46.609Z,44.45
2022-08-03T15:24:17.733Z,43.86
2022-08-03T15:26:52.068Z,44.86
2022-08-03T15:30:06.148Z,45.42
2022-08-03T15:32:19.111Z,44.45
2022-08-03T15:34:52.776Z,44.06
2022-08-03T15:37:26.749Z,45.14
2022-08-03T15:40:01.319Z,45.51
2022-08-03T15:42:35.687Z,45.42
2022-08-03T15:45:09.635Z,45.04
2022-08-03T15:47:42.542Z,45.38
2022-08-03T15:50:15.512Z,46.31
2022-08-03T15:52:49.410Z,46.47
2022-08-03T15:55:22.514Z,47.04
2022-08-03T15:59:04.552Z,47.06
2022-08-03T16:00:49.917Z,47.17
2022-08-03T16:03:22.753Z,47.40
2022-08-03T16:05:56.012Z,47.68
2022-08-03T16:08:28.868Z,45.42
2022-08-03T16:11:02.111Z,45.79
2022-08-03T16:14:13.350Z,45.97
2022-08-03T16:16:29.817Z,46.45
2022-08-03T16:19:05.575Z,47.01
2022-08-03T16:21:47.958Z,46.39
2022-08-03T16:24:27.858Z,45.20
2022-08-03T16:27:01.167Z,44.18
2022-08-03T16:29:35.993Z,45.30
2022-08-03T16:32:09.646Z,45.73
2022-08-03T16:34:43.202Z,44.46
2022-08-03T16:37:37.493Z,44.34
2022-08-03T16:40:17.423Z,45.08
2022-08-03T16:42:52.472Z,45.73
2022-08-03T16:45:27.024Z,45.54
2022-08-03T16:48:05.491Z,45.81
2022-08-03T16:50:39.136Z,46.51
2022-08-03T16:53:16.565Z,46.96
2022-08-03T16:55:53.654Z,47.50
2022-08-03T16:58:41.297Z,47.04
2022-08-03T17:01:24.594Z,47.05
2022-08-03T17:04:03.556Z,47.08
2022-08-03T17:06:44.645Z,47.37
2022-08-03T17:09:20.587Z,47.35
2022-08-03T17:11:53.685Z,47.16
2022-08-03T17:14:28.514Z,47.48
2022-08-03T17:17:07.196Z,46.91
2022-08-03T17:19:41.656Z,46.53
2022-08-03T17:22:23.647Z,46.75
2022-08-03T17:24:59.121Z,47.06
2022-08-03T17:28:49.200Z,46.78
2022-08-03T17:30:48.964Z,47.07
2022-08-03T17:33:23.648Z,47.63
2022-08-03T17:35:58.551Z,47.49
2022-08-03T17:38:32.017Z,47.25
2022-08-03T17:41:11.066Z,47.57
2022-08-03T17:44:15.309Z,47.33
2022-08-03T17:46:41.597Z,47.49
2022-08-03T17:49:23.759Z,47.65
2022-08-03T17:52:02.961Z,47.95
2022-08-03T17:55:50.686Z,47.78
2022-08-03T17:58:02.004Z,48.11
2022-08-03T18:00:55.406Z,47.94
2022-08-03T18:03:56.957Z,48.15
2022-08-03T18:06:37.528Z,48.22
2022-08-03T18:10:06.695Z,48.56
2022-08-03T18:12:28.940Z,49.11
2022-08-03T18:15:08.312Z,49.76
2022-08-03T18:17:55.874Z,50.01
2022-08-03T18:20:41.022Z,50.21
2022-08-03T18:23:25.417Z,50.24
2022-08-03T18:26:12.210Z,50.36
2022-08-03T18:28:45.649Z,50.83
2022-08-03T18:31:59.766Z,51.18
2022-08-03T18:34:32.923Z,51.00
2022-08-03T18:37:08.165Z,51.10
2022-08-03T18:39:50.144Z,51.78
2022-08-03T18:42:27.093Z,51.88
2022-08-03T18:45:15.061Z,51.67
2022-08-03T18:48:04.909Z,52.28
2022-08-03T18:50:46.450Z,52.30
2022-08-03T18:54:02.225Z,52.61
2022-08-03T18:56:35.673Z,53.28
2022-08-03T18:59:17.182Z,53.18
2022-08-03T19:02:19.778Z,53.75
2022-08-03T19:05:04.448Z,54.30
2022-08-03T19:07:40.361Z,54.99
2022-08-03T19:10:16.068Z,55.60
2022-08-03T19:12:56.107Z,56.42
2022-08-03T19:15:36.416Z,56.50
2022-08-03T19:18:17.994Z,57.05
2022-08-03T19:20:54.790Z,57.16
2022-08-03T19:23:33.876Z,57.83
2022-08-03T19:26:07.390Z,58.17
2022-08-03T19:29:03.034Z,58.87
2022-08-03T19:31:38.500Z,59.34
2022-08-03T19:34:13.275Z,59.43
2022-08-03T19:36:49.882Z,60.14
2022-08-03T19:39:23.733Z,60.26
2022-08-03T19:42:08.053Z,60.81
2022-08-03T19:44:52.006Z,61.56
2022-08-03T19:47:30.385Z,62.17
2022-08-03T19:50:14.079Z,62.35
2022-08-03T19:52:50.295Z,63.27
2022-08-03T19:55:25.161Z,63.70
2022-08-03T19:58:01.043Z,64.16
2022-08-03T20:00:38.278Z,64.73
2022-08-03T20:03:19.651Z,65.15
2022-08-03T20:05:55.213Z,65.96
2022-08-03T20:08:28.565Z,66.48
2022-08-03T20:11:02.023Z,66.87
2022-08-03T20:13:39.055Z,67.57
2022-08-03T20:16:17.922Z,68.45
2022-08-03T20:18:51.138Z,68.86
2022-08-03T20:21:28.311Z,69.57
2022-08-03T20:27:05.181Z,70.96
2022-08-03T20:30:06.784Z,71.63
2022-08-03T20:32:41.805Z,73.21
2022-08-03T20:35:16.199Z,74.08
2022-08-03T20:37:49.200Z,74.62
2022-08-03T20:40:23.415Z,75.64
2022-08-03T20:43:01.603Z,76.46
2022-08-03T20:45:59.884Z,77.30
2022-08-03T20:48:29.644Z,78.37
2022-08-03T20:51:05.021Z,78.98
2022-08-03T20:53:59.759Z,79.64
2022-08-03T20:56:35.592Z,79.95
2022-08-03T20:59:14.871Z,81.26
2022-08-03T21:01:48.373Z,82.05
2022-08-03T21:04:24.090Z,82.50
2022-08-03T21:07:01.915Z,83.30
2022-08-03T21:09:49.402Z,83.83
2022-08-03T21:12:36.534Z,84.65
2022-08-03T21:13:13.458Z,69.94
2022-08-03T21:15:15.864Z,85.27
2022-08-03T21:18:13.780Z,85.87
2022-08-03T21:20:48.789Z,86.48
2022-08-03T21:23:35.173Z,86.97
2022-08-03T21:26:18.063Z,87.78
2022-08-03T21:28:53.142Z,88.42
2022-08-03T21:31:27.066Z,89.06
2022-08-03T21:34:03.295Z,89.77
2022-08-03T21:36:38.438Z,90.17
2022-08-03T21:39:12.630Z,90.88
2022-08-03T21:41:46.708Z,91.23
2022-08-03T21:44:28.828Z,91.75
2022-08-03T21:47:03.662Z,92.17
2022-08-03T21:50:05.078Z,92.79
2022-08-03T21:52:34.815Z,93.41
2022-08-03T21:55:08.871Z,94.10
2022-08-03T21:57:53.834Z,94.48
2022-08-03T22:00:27.599Z,94.90
2022-08-03T22:03:15.215Z,95.58
2022-08-03T22:05:53.336Z,96.53
2022-08-03T22:08:39.616Z,96.85
2022-08-03T22:11:12.663Z,97.69
2022-08-03T22:13:45.878Z,98.47
2022-08-03T22:16:18.913Z,98.87
2022-08-03T22:18:52.162Z,99.36
2022-08-03T22:21:36.077Z,100.00
2022-08-03T22:24:11.629Z,100.00
2022-08-03T22:27:05.662Z,100.00
2022-08-03T22:29:40.912Z,100.00
2022-08-03T22:32:13.813Z,100.00
2022-08-03T22:34:48.544Z,100.00
2022-08-03T22:37:25.828Z,100.00
2022-08-03T22:40:03.887Z,100.00
2022-08-03T22:42:36.951Z,100.00
2022-08-03T22:45:10.643Z,100.00
2022-08-03T22:48:05.645Z,100.00
2022-08-03T22:50:39.299Z,100.00
2022-08-03T22:53:17.256Z,100.00
2022-08-03T22:55:53.031Z,100.00
2022-08-03T22:58:26.154Z,100.00
2022-08-03T23:01:04.061Z,100.00
2022-08-03T23:04:01.040Z,100.00
2022-08-03T23:06:36.537Z,100.00
2022-08-03T23:09:12.357Z,100.00
2022-08-03T23:11:47.936Z,100.00
2022-08-03T23:14:23.397Z,100.00
2022-08-03T23:16:57.345Z,100.00
2022-08-03T23:19:34.331Z,100.00
2022-08-03T23:22:29.640Z,100.00
2022-08-03T23:25:04.781Z,100.00
2022-08-03T23:27:41.108Z,100.00
2022-08-03T23:30:14.555Z,100.00
2022-08-03T23:32:54.678Z,100.00
2022-08-03T23:36:28.014Z,100.00
2022-08-03T23:38:39.055Z,100.00
2022-08-03T23:41:14.523Z,100.00
2022-08-03T23:43:51.603Z,100.00
2022-08-03T23:46:26.909Z,100.00
2022-08-03T23:49:00.343Z,100.00
2022-08-03T23:51:43.125Z,100.00
2022-08-03T23:54:29.497Z,100.00
2022-08-03T23:57:12.341Z,100.00
2022-08-03T23:59:54.682Z,100.00
